Time;durP1;ratioP1;P1;durP2;ratioP2;P2;SDS_P1;SDS_P2;PMS_P1;PMS_P2;Temp;Humidity;BMP_temperature;BMP_pressure;BME280_temperature;BME280_humidity;BME280_pressure;Samples;Min_cycle;Max_cycle;Signal;HPM_P1;HPM_P2
2022/08/18 00:02:19;;;;;;;9.53;5.83;;;;;;;23.60;86.75;100551.44;5015689;28;20448;-67
2022/08/18 00:04:49;;;;;;;12.57;5.73;;;;;;;23.57;87.25;100546.69;5015571;28;20420;-67
2022/08/18 00:07:18;;;;;;;7.40;4.53;;;;;;;23.52;87.82;100546.28;5015178;28;20816;-68
2022/08/18 00:09:46;;;;;;;8.33;4.83;;;;;;;23.48;87.94;100549.03;5015166;28;20448;-68
2022/08/18 00:12:15;;;;;;;10.07;5.60;;;;;;;23.45;88.39;100540.72;5015490;28;20555;-68
2022/08/18 00:14:42;;;;;;;8.27;4.83;;;;;;;23.40;88.57;100544.63;5014998;28;20972;-68
2022/08/18 00:17:09;;;;;;;11.73;4.90;;;;;;;23.35;88.79;100543.03;5015400;28;20483;-68
2022/08/18 00:19:35;;;;;;;8.63;5.13;;;;;;;23.27;89.18;100541.44;5015368;28;20440;-67
2022/08/18 00:22:03;;;;;;;6.93;5.03;;;;;;;23.25;89.45;100532.75;5015261;28;20459;-68
2022/08/18 00:24:30;;;;;;;8.47;5.70;;;;;;;23.23;89.94;100532.31;5015165;28;20455;-69
2022/08/18 00:26:56;;;;;;;7.00;5.13;;;;;;;23.20;90.58;100533.13;5015176;28;20479;-68
2022/08/18 00:29:23;;;;;;;9.43;5.07;;;;;;;23.17;90.73;100528.38;5015043;28;20559;-68
2022/08/18 00:31:49;;;;;;;10.30;6.37;;;;;;;23.14;90.40;100531.91;5015162;28;20439;-68
2022/08/18 00:34:16;;;;;;;8.33;5.47;;;;;;;23.06;90.57;100533.81;5014765;28;20448;-68
2022/08/18 00:36:43;;;;;;;7.37;4.60;;;;;;;23.00;90.95;100529.84;5014557;28;20488;-68
2022/08/18 00:39:10;;;;;;;8.50;5.23;;;;;;;22.91;90.32;100524.69;5014315;28;20464;-68
2022/08/18 00:41:37;;;;;;;7.83;5.00;;;;;;;22.86;90.83;100524.22;5014704;28;20456;-68
2022/08/18 00:44:04;;;;;;;8.60;5.43;;;;;;;22.81;91.60;100521.84;5014798;28;20459;-68
2022/08/18 00:46:33;;;;;;;7.07;4.73;;;;;;;22.76;91.79;100517.47;5014874;28;20444;-67
2022/08/18 00:49:00;;;;;;;8.33;5.37;;;;;;;22.72;91.81;100526.91;5014687;28;20464;-68
2022/08/18 00:51:33;;;;;;;8.70;5.17;;;;;;;22.69;91.78;100516.63;5014819;28;20444;-68
2022/08/18 00:54:03;;;;;;;11.23;6.30;;;;;;;22.67;92.35;100519.78;5014711;28;20433;-68
2022/08/18 00:56:35;;;;;;;10.70;6.77;;;;;;;22.67;92.29;100520.56;5014612;28;20491;-68
2022/08/18 00:59:07;;;;;;;8.60;5.47;;;;;;;22.63;92.24;100516.22;5014256;28;20538;-68
2022/08/18 01:01:34;;;;;;;8.93;5.63;;;;;;;22.62;92.30;100517.34;5014331;28;20424;-68
2022/08/18 01:04:08;;;;;;;8.57;6.10;;;;;;;22.59;92.27;100509.88;5014286;28;21004;-69
2022/08/18 01:06:39;;;;;;;9.30;5.53;;;;;;;22.57;92.57;100503.91;5014257;28;20436;-68
2022/08/18 01:09:07;;;;;;;12.33;5.93;;;;;;;22.53;92.56;100508.63;5014360;28;20507;-68
2022/08/18 01:11:35;;;;;;;9.23;5.70;;;;;;;22.49;92.55;100507.81;5014335;28;20463;-69
2022/08/18 01:14:02;;;;;;;11.43;6.50;;;;;;;22.47;92.62;100504.66;5013992;28;20444;-68
2022/08/18 01:22:02;;;;;;;7.67;4.67;;;;;;;22.36;92.62;100510.09;5013938;28;20427;-68
2022/08/18 01:27:18;;;;;;;8.27;5.30;;;;;;;22.31;92.61;100514.00;5014267;28;20412;-68
2022/08/18 01:29:45;;;;;;;8.73;5.67;;;;;;;22.28;92.97;100509.25;5013659;28;20960;-68
2022/08/18 01:32:15;;;;;;;11.40;6.10;;;;;;;22.26;93.23;100522.63;5013983;28;20800;-68
2022/08/18 01:34:46;;;;;;;9.80;5.37;;;;;;;22.26;93.74;100516.31;5013903;28;20448;-68
2022/08/18 01:37:14;;;;;;;9.23;5.77;;;;;;;22.23;93.82;100511.56;5013759;28;20476;-69
2022/08/18 01:39:42;;;;;;;8.90;4.70;;;;;;;22.22;93.96;100507.22;5013907;28;20440;-68
2022/08/18 01:42:09;;;;;;;10.97;6.60;;;;;;;22.22;93.83;100498.94;5014005;28;20448;-68
2022/08/18 01:44:36;;;;;;;9.87;6.07;;;;;;;22.26;94.00;100508.03;5013920;28;20443;-69
2022/08/18 01:47:03;;;;;;;11.17;6.43;;;;;;;22.26;94.18;100505.28;5013517;28;20938;-69
2022/08/18 01:49:30;;;;;;;10.47;6.80;;;;;;;22.27;94.02;100501.34;5013811;28;20464;-68
2022/08/18 01:51:56;;;;;;;8.00;4.90;;;;;;;22.27;93.96;100501.34;5013074;28;20960;-69
2022/08/18 01:54:23;;;;;;;10.23;6.10;;;;;;;22.27;94.09;100502.16;5013838;28;20443;-69
2022/08/18 01:56:52;;;;;;;12.47;6.00;;;;;;;22.31;94.31;100496.63;5013673;28;20484;-69
2022/08/18 01:59:18;;;;;;;9.80;5.67;;;;;;;22.28;94.29;100492.69;5031855;22;20857;-73
2022/08/18 02:01:47;;;;;;;8.73;5.97;;;;;;;22.25;94.01;100487.94;4993917;28;20445;-73
2022/08/18 02:04:15;;;;;;;9.23;5.73;;;;;;;22.21;93.94;100484.34;4993625;28;20972;-73
2022/08/18 02:06:42;;;;;;;7.53;5.13;;;;;;;22.16;94.06;100485.50;4993847;28;20445;-73
2022/08/18 02:09:08;;;;;;;9.70;6.57;;;;;;;22.15;94.53;100480.38;4993403;28;20460;-73
2022/08/18 02:11:35;;;;;;;10.30;6.57;;;;;;;22.15;94.86;100469.34;4993965;28;20441;-72
2022/08/18 02:14:03;;;;;;;14.40;5.80;;;;;;;22.12;95.29;100470.09;4993718;28;20520;-72
2022/08/18 02:16:29;;;;;;;9.03;5.20;;;;;;;22.06;95.40;100464.09;4993432;28;21084;-72
2022/08/18 02:18:56;;;;;;;10.87;5.43;;;;;;;21.99;95.08;100474.28;4993535;28;20473;-73
2022/08/18 02:21:22;;;;;;;8.90;5.10;;;;;;;21.94;95.34;100467.16;4993813;28;20449;-72
2022/08/18 02:23:49;;;;;;;11.00;5.67;;;;;;;21.87;95.33;100467.09;4993631;28;20441;-72
2022/08/18 02:26:18;;;;;;;12.63;6.07;;;;;;;21.79;95.45;100477.28;4993944;28;20472;-72
2022/08/18 02:28:45;;;;;;;8.73;5.40;;;;;;;21.72;95.67;100476.41;4993522;28;20449;-72
2022/08/18 02:31:16;;;;;;;10.60;6.10;;;;;;;21.67;95.89;100475.59;4993735;28;20447;-71
2022/08/18 02:33:44;;;;;;;9.93;5.77;;;;;;;21.64;96.56;100470.81;4993633;28;20779;-71
2022/08/18 02:36:11;;;;;;;7.17;4.83;;;;;;;21.60;95.88;100466.44;4993418;28;20481;-71
2022/08/18 02:38:38;;;;;;;9.37;5.33;;;;;;;21.58;96.01;100477.84;4993411;28;20437;-71
2022/08/18 02:41:08;;;;;;;10.23;5.50;;;;;;;21.51;96.43;100469.50;4993488;28;21016;-71
2022/08/18 02:43:36;;;;;;;12.10;6.50;;;;;;;21.48;96.29;100483.28;4993655;28;20480;-71
2022/08/18 02:46:04;;;;;;;7.57;5.37;;;;;;;21.39;96.64;100475.28;4993447;28;20453;-71
2022/08/18 02:48:33;;;;;;;9.13;5.60;;;;;;;21.36;96.72;100482.34;4993344;28;20453;-71
2022/08/18 02:51:01;;;;;;;8.27;5.60;;;;;;;;;;4993354;28;20468;-71
2022/08/18 02:53:28;;;;;;;9.47;5.97;;;;;;;21.28;97.11;100483.41;4993550;28;20539;-71
2022/08/18 02:55:55;;;;;;;10.00;5.50;;;;;;;21.22;97.50;100467.59;4993264;28;20445;-71
2022/08/18 02:58:22;;;;;;;11.10;6.30;;;;;;;21.14;97.82;100478.50;4993645;28;20453;-71
2022/08/18 03:00:48;;;;;;;10.80;6.63;;;;;;;21.12;97.93;100469.84;4993476;28;20477;-71
2022/08/18 03:03:15;;;;;;;11.30;6.47;;;;;;;21.09;97.88;100475.31;4994380;28;20452;-71
2022/08/18 03:05:43;;;;;;;9.20;6.00;;;;;;;21.06;98.03;100470.53;4997051;28;20447;-71
2022/08/18 03:08:10;;;;;;;9.30;6.10;;;;;;;20.99;98.25;100471.25;4996777;28;20927;-71
2022/08/18 03:10:37;;;;;;;10.27;6.63;;;;;;;20.98;98.74;100474.38;4996919;28;20910;-72
2022/08/18 03:13:05;;;;;;;12.67;6.77;;;;;;;20.96;98.10;100471.22;4996938;28;20437;-71
2022/08/18 03:15:31;;;;;;;9.70;6.13;;;;;;;20.89;98.67;100472.72;4996805;28;20449;-73
2022/08/18 03:17:59;;;;;;;10.23;6.37;;;;;;;20.83;99.02;100476.16;4997993;28;20487;-79
2022/08/18 03:20:26;;;;;;;11.43;7.10;;;;;;;20.79;98.88;100476.09;4999987;28;20507;-72
2022/08/18 03:22:54;;;;;;;11.07;6.80;;;;;;;20.78;99.52;100479.25;4996513;28;20445;-73
2022/08/18 03:25:21;;;;;;;10.80;6.33;;;;;;;20.73;99.31;100480.34;4996589;28;20437;-70
2022/08/18 03:27:47;;;;;;;9.03;6.20;;;;;;;20.71;99.44;100479.91;4996592;28;20478;-70
2022/08/18 03:30:14;;;;;;;11.90;6.70;;;;;;;20.73;99.46;100482.31;4996482;28;20552;-69
2022/08/18 03:32:40;;;;;;;14.73;6.53;;;;;;;20.70;99.82;100477.56;4996520;28;20437;-70
2022/08/18 03:35:08;;;;;;;10.60;6.67;;;;;;;20.66;99.83;100477.50;4996858;28;20437;-70
2022/08/18 03:37:35;;;;;;;9.40;6.33;;;;;;;20.65;99.67;100475.91;4996215;28;20575;-70
2022/08/18 03:40:04;;;;;;;10.03;6.63;;;;;;;20.65;99.47;100471.19;4996291;28;20471;-70
2022/08/18 03:42:30;;;;;;;12.43;6.90;;;;;;;20.60;99.12;100473.50;4996283;28;20523;-70
2022/08/18 03:44:57;;;;;;;10.33;6.40;;;;;;;20.55;99.56;100474.59;4996141;28;20439;-70
2022/08/18 03:47:23;;;;;;;10.80;7.50;;;;;;;20.49;100.00;100483.53;4996504;28;20460;-70
2022/08/18 03:49:50;;;;;;;12.23;6.90;;;;;;;20.46;100.00;100485.06;4996189;28;20837;-70
2022/08/18 03:52:17;;;;;;;11.57;6.10;;;;;;;20.47;99.62;100486.63;4996301;28;20540;-70
2022/08/18 03:54:43;;;;;;;10.37;7.33;;;;;;;20.42;99.89;100476.75;4996194;28;20451;-72
2022/08/18 03:57:12;;;;;;;14.70;7.87;;;;;;;20.42;99.90;100475.94;4996075;28;20491;-70
2022/08/18 03:59:42;;;;;;;12.80;7.10;;;;;;;20.41;100.00;100486.16;4995778;28;20488;-70
2022/08/18 04:02:11;;;;;;;11.13;6.27;;;;;;;20.35;100.00;100479.38;4996316;28;20532;-70
2022/08/18 04:04:38;;;;;;;10.57;7.40;;;;;;;20.34;100.00;100479.75;4995926;28;20441;-70
2022/08/18 04:07:09;;;;;;;12.10;7.50;;;;;;;20.28;100.00;100482.03;4995859;28;20453;-70
2022/08/18 04:09:37;;;;;;;10.70;6.20;;;;;;;20.30;100.00;100484.41;4995738;28;20981;-70
2022/08/18 04:12:10;;;;;;;10.23;6.33;;;;;;;20.28;100.00;100479.28;4995799;28;20441;-70
2022/08/18 04:14:40;;;;;;;11.80;7.57;;;;;;;20.23;100.00;100490.59;4995993;28;20484;-70
2022/08/18 04:17:08;;;;;;;9.93;6.20;;;;;;;20.21;100.00;100484.66;4995751;28;20546;-70
2022/08/18 04:19:34;;;;;;;10.97;5.97;;;;;;;20.28;100.00;100492.25;4995522;28;20479;-70
2022/08/18 04:22:02;;;;;;;12.60;6.73;;;;;;;20.30;100.00;100498.94;4995617;28;20830;-70
2022/08/18 04:24:30;;;;;;;10.27;6.03;;;;;;;20.32;100.00;100499.41;4995576;28;20441;-70
2022/08/18 04:26:59;;;;;;;10.13;6.80;;;;;;;20.33;100.00;100502.94;4995515;28;20823;-70
2022/08/18 04:29:25;;;;;;;11.77;6.53;;;;;;;20.36;100.00;100496.66;4995324;28;20483;-70
2022/08/18 04:31:54;;;;;;;9.60;6.23;;;;;;;20.36;100.00;100502.19;4995665;28;20447;-70
2022/08/18 04:34:22;;;;;;;12.13;7.40;;;;;;;20.45;100.00;100504.66;4995712;28;20540;-70
2022/08/18 04:36:53;;;;;;;10.30;7.00;;;;;;;20.45;100.00;100502.72;4995216;28;20485;-70
2022/08/18 04:39:20;;;;;;;11.57;6.27;;;;;;;20.47;100.00;100497.66;4995282;28;21021;-70
2022/08/18 04:41:47;;;;;;;14.73;6.73;;;;;;;20.49;100.00;100502.78;4995194;28;20448;-70
2022/08/18 04:44:17;;;;;;;10.97;6.87;;;;;;;20.54;100.00;100491.47;4995194;28;20507;-70
2022/08/18 04:46:47;;;;;;;13.43;6.87;;;;;;;20.56;100.00;100500.16;4994964;28;20958;-70
2022/08/18 04:49:17;;;;;;;12.23;7.13;;;;;;;20.62;100.00;100499.47;4995107;28;20568;-70
2022/08/18 04:53:43;;;;;;;10.20;6.80;;;;;;;20.68;100.00;100497.19;4994992;28;20453;-70
2022/08/18 04:54:37;;;;;;;11.47;6.97;;;;;;;20.76;100.00;100501.66;4994583;28;20437;-70
2022/08/18 04:57:09;;;;;;;10.70;5.73;;;;;;;20.82;100.00;100504.88;4994780;28;20484;-70
2022/08/18 04:59:37;;;;;;;13.60;7.47;;;;;;;20.88;99.79;100503.38;4994926;28;20481;-70
2022/08/18 05:02:06;;;;;;;13.60;8.57;;;;;;;20.92;100.00;100506.97;4994575;28;20456;-70
2022/08/18 05:04:36;;;;;;;13.77;7.10;;;;;;;20.97;99.67;100508.59;4994793;28;20456;-70
2022/08/18 05:07:03;;;;;;;11.27;6.93;;;;;;;21.02;99.56;100516.53;4995132;28;20455;-70
2022/08/18 05:09:29;;;;;;;12.43;7.40;;;;;;;21.07;100.00;100507.94;4994820;28;20477;-72
2022/08/18 05:11:56;;;;;;;12.17;6.73;;;;;;;21.05;100.00;100511.06;4994830;28;20441;-72
2022/08/18 05:14:23;;;;;;;12.23;7.07;;;;;;;21.08;100.00;100513.09;4994589;28;20441;-73
2022/08/18 05:16:50;;;;;;;8.43;6.30;;;;;;;21.14;100.00;100519.03;4994540;28;20488;-73
2022/08/18 05:19:21;;;;;;;10.63;5.63;;;;;;;21.19;100.00;100520.69;4994438;28;20469;-73
2022/08/18 05:21:49;;;;;;;10.33;6.63;;;;;;;21.21;100.00;100527.41;4994311;28;20464;-71
2022/08/18 05:24:16;;;;;;;12.57;7.20;;;;;;;21.24;100.00;100523.88;4994416;28;20548;-71
2022/08/18 05:26:43;;;;;;;12.53;8.20;;;;;;;21.33;100.00;100529.94;4993767;28;20448;-71
2022/08/18 05:29:09;;;;;;;12.80;7.40;;;;;;;21.39;100.00;100528.44;4994238;28;20547;-71
2022/08/18 05:31:36;;;;;;;11.73;7.40;;;;;;;21.45;100.00;100533.63;4994264;28;20453;-72
2022/08/18 05:34:03;;;;;;;11.70;6.97;;;;;;;21.54;100.00;100539.63;4994244;28;20456;-71
2022/08/18 05:36:47;;;;;;;11.47;6.10;;;;;;;21.64;99.78;100541.72;4994232;28;20449;-71
2022/08/18 05:39:22;;;;;;;13.97;7.13;;;;;;;21.77;97.70;100548.53;4994225;28;20483;-71
2022/08/18 05:41:51;;;;;;;9.23;5.97;;;;;;;21.85;96.99;100552.97;4994195;28;20452;-71
2022/08/18 05:44:24;;;;;;;9.37;6.03;;;;;;;21.98;96.31;100566.50;4994110;28;20973;-71
2022/08/18 05:46:53;;;;;;;10.13;6.30;;;;;;;22.10;95.58;100568.97;4993901;28;20925;-71
2022/08/18 05:49:21;;;;;;;13.10;7.27;;;;;;;22.17;94.98;100564.34;4994035;28;20556;-71
2022/08/18 05:51:50;;;;;;;9.67;5.80;;;;;;;22.27;94.63;100562.03;4993992;28;20468;-71
2022/08/18 05:57:10;;;;;;;11.20;6.83;;;;;;;22.50;93.16;100575.66;4993870;28;20460;-71
2022/08/18 05:59:39;;;;;;;10.23;6.63;;;;;;;22.57;92.83;100570.19;4993847;28;21017;-71
2022/08/18 06:02:18;;;;;;;11.43;6.03;;;;;;;22.64;92.32;100562.75;4993828;28;20460;-71
2022/08/18 06:04:49;;;;;;;11.00;6.33;;;;;;;22.74;92.35;100565.97;4994054;28;20452;-71
2022/08/18 06:07:23;;;;;;;12.20;7.00;;;;;;;22.83;91.48;100566.41;4994058;28;20449;-71
2022/08/18 06:09:54;;;;;;;9.80;6.07;;;;;;;22.89;91.07;100560.19;4993806;28;20464;-73
2022/08/18 06:12:26;;;;;;;10.00;5.80;;;;;;;22.99;91.29;100564.19;4994015;28;20441;-72
2022/08/18 06:15:01;;;;;;;9.97;6.47;;;;;;;23.11;91.73;100565.84;4993777;28;20445;-72
2022/08/18 06:17:43;;;;;;;9.77;6.00;;;;;;;23.19;91.66;100564.69;4994805;28;20512;-78
2022/08/18 06:20:20;;;;;;;8.60;5.70;;;;;;;23.31;91.25;100564.34;4994644;28;20464;-74
2022/08/18 06:22:58;;;;;;;12.20;6.00;;;;;;;23.44;91.26;100570.31;4993761;28;20969;-71
2022/08/18 06:25:35;;;;;;;10.33;6.13;;;;;;;23.52;88.71;100573.91;4993901;28;20804;-71
2022/08/18 06:28:05;;;;;;;9.30;6.20;;;;;;;23.60;87.22;100570.00;4993904;28;20449;-73
2022/08/18 06:30:46;;;;;;;9.60;6.23;;;;;;;23.69;87.36;100575.19;4993323;28;21013;-71
2022/08/18 06:33:34;;;;;;;8.67;5.67;;;;;;;23.75;86.36;100570.84;4993620;28;20930;-71
2022/08/18 06:36:11;;;;;;;10.77;5.43;;;;;;;23.78;85.42;100570.88;4993634;28;20811;-71
2022/08/18 06:38:50;;;;;;;8.60;5.57;;;;;;;23.78;84.86;100568.09;4994998;28;20480;-71
2022/08/18 06:41:21;;;;;;;8.77;5.90;;;;;;;23.85;85.25;100570.88;4997288;28;20829;-71
2022/08/18 06:43:58;;;;;;;10.37;6.67;;;;;;;23.96;85.41;100575.66;4997351;28;20427;-71
2022/08/18 06:46:38;;;;;;;8.70;5.50;;;;;;;24.04;85.95;100575.28;4997682;28;20445;-71
2022/08/18 06:49:08;;;;;;;8.10;5.37;;;;;;;24.13;87.16;100575.69;4997447;28;20484;-74
2022/08/18 06:51:35;;;;;;;10.37;6.57;;;;;;;24.21;87.67;100576.47;4997362;28;20453;-70
2022/08/18 06:54:04;;;;;;;9.00;5.60;;;;;;;24.24;85.22;100575.69;4996861;28;20962;-70
2022/08/18 06:56:46;;;;;;;10.67;5.63;;;;;;;24.31;82.87;100575.69;4997267;28;20938;-70
2022/08/18 06:59:22;;;;;;;9.27;5.77;;;;;;;24.41;82.36;100576.91;4996688;28;20579;-70
2022/08/18 07:01:52;;;;;;;9.63;5.50;;;;;;;24.51;83.27;100578.09;4997125;28;20440;-70
2022/08/18 07:04:42;;;;;;;10.97;6.43;;;;;;;24.56;85.81;100583.22;4997220;28;20429;-70
2022/08/18 07:07:20;;;;;;;12.23;6.50;;;;;;;24.54;85.47;100583.63;4996803;28;20436;-70
2022/08/18 07:09:48;;;;;;;9.33;6.83;;;;;;;24.55;82.95;100578.88;4996807;28;20473;-70
2022/08/18 07:12:23;;;;;;;13.30;7.37;;;;;;;24.59;83.61;100580.47;4996942;28;20449;-70
2022/08/18 07:14:52;;;;;;;9.53;6.17;;;;;;;24.62;82.84;100581.66;4996696;28;20514;-70
2022/08/18 07:17:23;;;;;;;10.50;6.20;;;;;;;24.64;81.82;100580.06;4996648;28;20475;-70
2022/08/18 07:20:05;;;;;;;10.47;6.20;;;;;;;24.73;83.33;100584.41;4996655;28;20922;-70
2022/08/18 07:22:32;;;;;;;8.07;5.43;;;;;;;24.72;82.23;100580.84;4996762;28;20903;-70
2022/08/18 07:25:01;;;;;;;9.70;6.00;;;;;;;24.76;80.23;100584.41;4996618;28;20540;-70
2022/08/18 07:27:44;;;;;;;10.90;6.97;;;;;;;24.78;81.17;100578.47;4996580;28;20456;-70
2022/08/18 07:30:14;;;;;;;10.97;6.63;;;;;;;24.81;79.07;100581.22;4996667;28;20472;-70
2022/08/18 07:32:46;;;;;;;10.50;5.63;;;;;;;24.80;78.43;100579.66;4996545;28;20552;-70
2022/08/18 07:35:18;;;;;;;9.67;6.23;;;;;;;24.92;77.42;100576.47;4996820;28;20471;-71
2022/08/18 07:37:51;;;;;;;11.63;6.10;;;;;;;25.00;76.54;100574.44;4996450;28;20559;-71
2022/08/18 07:40:27;;;;;;;8.37;5.20;;;;;;;25.09;76.42;100574.06;4996494;28;20475;-70
2022/08/18 07:43:00;;;;;;;26.43;6.70;;;;;;;25.17;78.15;100584.72;4996515;28;20851;-72
2022/08/18 07:45:32;;;;;;;9.57;6.57;;;;;;;25.17;79.76;100579.19;4996502;28;20533;-72
2022/08/18 07:48:06;;;;;;;9.93;6.30;;;;;;;25.20;78.72;100579.59;4996264;28;20451;-72
2022/08/18 07:50:41;;;;;;;9.03;6.20;;;;;;;25.29;79.05;100586.28;4995633;28;20974;-72
2022/08/18 07:53:16;;;;;;;11.63;5.73;;;;;;;25.38;79.31;100588.63;4996397;28;20447;-72
2022/08/18 07:55:47;;;;;;;8.77;5.93;;;;;;;25.41;80.47;100593.34;4995970;28;20452;-73
2022/08/18 07:58:26;;;;;;;9.60;6.20;;;;;;;25.32;78.02;100591.03;4996190;28;20543;-71
2022/08/18 08:00:59;;;;;;;10.93;6.93;;;;;;;25.41;77.16;100596.94;4997093;28;20476;-71
2022/08/18 08:03:34;;;;;;;9.63;6.97;;;;;;;25.54;75.67;100604.81;4995931;28;20954;-71
2022/08/18 08:06:08;;;;;;;9.00;6.10;;;;;;;25.59;76.77;100609.97;4995881;28;20992;-71
2022/08/18 08:08:41;;;;;;;12.13;6.40;;;;;;;25.62;76.43;100609.13;4995603;28;20957;-71
2022/08/18 08:11:19;;;;;;;9.80;5.57;;;;;;;25.71;74.26;100608.69;4996053;28;20455;-71
2022/08/18 08:14:06;;;;;;;9.43;5.93;;;;;;;25.79;72.52;100618.59;4995875;28;20445;-71
2022/08/18 08:16:43;;;;;;;10.63;6.10;;;;;;;25.79;72.91;100607.50;4995743;28;20453;-72
2022/08/18 08:19:39;;;;;;;7.73;4.93;;;;;;;25.92;73.64;100616.94;4997123;28;20485;-77
2022/08/18 08:22:12;;;;;;;9.00;6.23;;;;;;;26.03;74.85;100614.09;4995652;28;20444;-72
2022/08/18 08:24:47;;;;;;;8.70;5.80;;;;;;;26.10;77.05;100614.84;4995708;28;20456;-73
2022/08/18 08:27:21;;;;;;;9.23;5.60;;;;;;;26.17;76.06;100614.81;4995660;28;20504;-74
2022/08/18 08:29:55;;;;;;;11.37;6.30;;;;;;;26.18;73.42;100615.59;4995538;28;20479;-73
2022/08/18 08:32:31;;;;;;;11.60;6.70;;;;;;;26.27;73.13;100629.81;4995862;28;20973;-71
2022/08/18 08:35:05;;;;;;;11.23;6.77;;;;;;;26.34;71.47;100634.50;4995355;28;20443;-75
2022/08/18 08:37:38;;;;;;;11.83;6.67;;;;;;;26.31;68.17;100630.59;4995269;28;20451;-73
2022/08/18 08:40:11;;;;;;;8.90;6.73;;;;;;;26.32;68.31;100626.59;4995216;28;20549;-72
2022/08/18 08:42:43;;;;;;;9.43;6.50;;;;;;;26.26;69.14;100636.56;4995306;28;20441;-73
2022/08/18 08:45:16;;;;;;;7.60;5.50;;;;;;;26.22;68.76;100626.69;4995496;28;20453;-73
2022/08/18 08:47:51;;;;;;;9.47;6.20;;;;;;;26.38;68.21;100630.50;4995261;28;20786;-73
2022/08/18 08:50:22;;;;;;;18.40;6.60;;;;;;;26.53;66.93;100624.91;4995414;28;20460;-72
2022/08/18 08:52:54;;;;;;;10.83;7.20;;;;;;;26.59;66.90;100624.03;4995145;28;20453;-73
2022/08/18 08:55:25;;;;;;;8.10;5.40;;;;;;;26.67;67.30;100625.56;4994970;28;20413;-73
2022/08/18 08:57:59;;;;;;;9.50;6.50;;;;;;;26.70;66.59;100623.97;4994970;28;20449;-73
2022/08/18 09:00:28;;;;;;;14.63;7.63;;;;;;;26.66;66.12;100609.31;4994015;28;21016;-71
2022/08/18 09:03:08;;;;;;;12.00;6.17;;;;;;;26.77;66.62;100612.75;4994646;28;20448;-73
2022/08/18 09:05:40;;;;;;;10.40;5.93;;;;;;;26.82;66.88;100605.97;4994992;28;20547;-70
2022/08/18 09:08:30;;;;;;;8.70;5.30;;;;;;;26.92;68.19;100608.66;4994695;28;20998;-74
2022/08/18 09:11:19;;;;;;;10.60;5.97;;;;;;;27.03;66.37;100608.53;4994751;28;20457;-71
2022/08/18 09:14:30;;;;;;;10.13;6.67;;;;;;;27.11;65.86;100603.72;4994763;28;20440;-73
2022/08/18 09:17:16;;;;;;;9.23;6.17;;;;;;;27.13;66.17;100598.53;4988489;28;20452;-73
2022/08/18 09:20:00;;;;;;;9.57;5.40;;;;;;;27.26;66.16;100599.56;4994315;28;20579;-73
2022/08/18 09:22:41;;;;;;;8.33;5.43;;;;;;;27.36;66.22;100601.47;4994646;28;20437;-72
2022/08/18 09:25:11;;;;;;;8.83;5.33;;;;;;;27.46;65.99;100596.97;4994812;28;20457;-73
2022/08/18 09:27:42;;;;;;;9.20;5.80;;;;;;;27.44;64.81;100593.00;4994440;28;20500;-73
2022/08/18 09:30:53;;;;;;;8.63;6.17;;;;;;;27.54;64.21;100587.31;4994563;28;20512;-72
2022/08/18 09:33:34;;;;;;;10.77;6.00;;;;;;;27.66;65.67;100581.19;4974994;28;20560;-73
2022/08/18 09:36:28;;;;;;;8.50;5.50;;;;;;;27.77;65.70;100588.66;4994241;28;20432;-73
2022/08/18 09:41:50;;;;;;;8.27;4.80;;;;;;;27.91;66.12;100589.22;4994100;28;20823;-70
2022/08/18 09:44:50;;;;;;;9.83;5.80;;;;;;;28.05;65.33;100584.66;4994027;28;20452;-70
2022/08/18 09:47:57;;;;;;;8.93;5.70;;;;;;;28.14;66.32;100590.47;4994003;28;20962;-73
2022/08/18 09:51:14;;;;;;;10.43;6.23;;;;;;;28.06;64.13;100584.22;4994144;28;20487;-73
2022/08/18 09:54:17;;;;;;;11.33;5.70;;;;;;;28.23;64.97;100576.78;4994196;28;20448;-71
2022/08/18 09:57:16;;;;;;;8.90;5.47;;;;;;;28.38;65.79;100582.97;4990860;28;20460;-71
2022/08/18 10:00:19;;;;;;;10.63;6.17;;;;;;;28.41;62.39;100576.53;4993532;28;20496;-71
2022/08/18 10:03:12;;;;;;;10.30;5.30;;;;;;;28.53;62.35;100577.94;4993622;28;20831;-70
2022/08/18 10:05:41;;;;;;;7.20;5.30;;;;;;;28.60;63.94;100575.03;4993881;28;20461;-70
2022/08/18 10:08:39;;;;;;;10.40;6.20;;;;;;;28.64;63.81;100567.38;4993864;28;20934;-71
2022/08/18 10:11:22;;;;;;;10.53;5.20;;;;;;;28.66;60.85;100567.75;4993868;28;20808;-71
2022/08/18 10:14:17;;;;;;;8.87;5.60;;;;;;;28.77;60.40;100561.97;4993473;28;20437;-71
2022/08/18 10:16:55;;;;;;;8.60;5.40;;;;;;;28.87;61.43;100553.41;4993707;28;20451;-71
2022/08/18 10:19:32;;;;;;;8.60;5.87;;;;;;;28.94;61.37;100557.28;4993327;28;20994;-71
2022/08/18 10:22:06;;;;;;;9.73;5.50;;;;;;;28.99;60.94;100565.16;4993323;28;21024;-71
2022/08/18 10:24:36;;;;;;;9.77;5.63;;;;;;;29.15;61.01;100566.03;4993918;28;20448;-71
2022/08/18 10:27:06;;;;;;;9.73;5.53;;;;;;;29.30;58.47;100568.53;4993644;28;20520;-71
2022/08/18 10:29:50;;;;;;;7.50;4.60;;;;;;;29.34;57.62;100569.25;4993544;28;20465;-73
2022/08/18 10:32:23;;;;;;;8.23;5.40;;;;;;;29.37;58.40;100574.75;4993567;28;20485;-72
2022/08/18 10:34:51;;;;;;;9.60;5.67;;;;;;;29.32;59.36;100571.69;4993586;28;20517;-70
2022/08/18 10:37:21;;;;;;;10.17;5.87;;;;;;;29.34;57.99;100572.03;4993470;28;20465;-70
2022/08/18 10:39:51;;;;;;;9.90;4.60;;;;;;;29.31;55.96;100568.13;4993113;28;20495;-71
2022/08/18 10:42:28;;;;;;;7.30;4.83;;;;;;;29.46;55.81;100578.97;4993540;28;20770;-71
2022/08/18 10:45:07;;;;;;;8.50;4.90;;;;;;;29.68;56.56;100571.75;4993438;28;20441;-71
2022/08/18 10:47:34;;;;;;;12.33;4.97;;;;;;;29.78;53.53;100573.50;4993419;28;20443;-71
2022/08/18 10:50:04;;;;;;;8.50;4.90;;;;;;;29.99;54.09;100563.06;4993554;28;20904;-71
2022/08/18 10:52:58;;;;;;;7.47;4.80;;;;;;;30.13;54.54;100562.72;4993880;28;20463;-71
2022/08/18 10:55:49;;;;;;;10.53;5.70;;;;;;;30.29;53.86;100554.38;4994140;28;20448;-71
2022/08/18 10:58:57;;;;;;;10.03;5.20;;;;;;;30.53;53.74;100556.97;4993428;28;20548;-72
2022/08/18 11:01:58;;;;;;;7.10;4.67;;;;;;;30.62;52.78;100557.13;4933636;29;20452;-71
2022/08/18 11:04:29;;;;;;;6.50;4.37;;;;;;;30.78;52.85;100545.94;4933687;29;20486;-71
2022/08/18 11:07:04;;;;;;;7.63;4.57;;;;;;;30.94;50.42;100561.88;4933527;29;20437;-71
2022/08/18 11:09:31;;;;;;;7.20;4.60;;;;;;;31.10;49.41;100552.66;4933419;29;20475;-71
2022/08/18 11:12:00;;;;;;;7.57;4.33;;;;;;;31.32;50.35;100547.25;4933073;29;20444;-71
2022/08/18 11:14:57;;;;;;;10.03;5.03;;;;;;;31.40;48.88;100546.59;4933399;29;20454;-71
2022/08/18 11:17:35;;;;;;;7.03;4.33;;;;;;;31.54;49.47;100553.78;4933136;29;20937;-71
2022/08/18 11:20:08;;;;;;;10.23;5.50;;;;;;;31.86;48.04;100558.41;4933109;29;20487;-71
2022/08/18 11:22:36;;;;;;;6.10;3.93;;;;;;;32.35;48.05;100558.00;4933368;29;20425;-71
2022/08/18 11:25:17;;;;;;;7.80;5.33;;;;;;;32.68;43.97;100551.34;4935034;29;20436;-71
2022/08/18 11:27:46;;;;;;;7.27;4.70;;;;;;;32.71;46.27;100556.03;4936661;29;20511;-74
2022/08/18 11:30:14;;;;;;;7.40;5.00;;;;;;;32.73;45.33;100554.34;4936420;29;20476;-73
2022/08/18 11:32:43;;;;;;;8.20;4.70;;;;;;;32.83;47.01;100558.00;4978516;28;20937;-76
2022/08/18 11:35:15;;;;;;;8.80;4.23;;;;;;;33.38;46.83;100547.97;4996938;28;20544;-75
2022/08/18 11:37:46;;;;;;;7.10;4.90;;;;;;;34.02;42.25;100560.78;4996392;28;20451;-72
2022/08/18 11:40:33;;;;;;;6.93;4.00;;;;;;;34.80;43.77;100554.66;4995994;28;20491;-72
2022/08/18 11:43:02;;;;;;;7.30;4.07;;;;;;;35.70;40.89;100559.06;4996379;28;20456;-72
2022/08/18 11:45:33;;;;;;;5.90;4.13;;;;;;;36.40;38.96;100558.84;4996346;28;20973;-72
2022/08/18 11:48:16;;;;;;;7.47;4.10;;;;;;;36.88;39.56;100560.38;4996224;28;20524;-72
2022/08/18 11:50:48;;;;;;;6.47;4.03;;;;;;;37.16;37.63;100557.28;4996144;28;20478;-72
2022/08/18 11:53:21;;;;;;;7.67;4.57;;;;;;;37.46;39.44;100554.50;4996073;28;20425;-72
2022/08/18 11:56:03;;;;;;;8.10;5.30;;;;;;;37.63;38.50;100547.03;4996593;28;20549;-72
2022/08/18 11:58:40;;;;;;;6.23;3.83;;;;;;;37.74;37.36;100558.53;4996641;28;20452;-72
2022/08/18 12:01:08;;;;;;;8.00;5.20;;;;;;;37.85;36.76;100547.44;4996023;28;20433;-72
2022/08/18 12:03:42;;;;;;;7.07;4.30;;;;;;;38.19;36.39;100544.28;4996046;28;20647;-73